createdAt,value
2023-05-02T00:01:06.323Z,14.21
2023-05-02T00:05:22.532Z,14.43
2023-05-02T00:09:38.956Z,14.34
2023-05-02T00:13:55.317Z,14.14
2023-05-02T00:18:12.108Z,14.22
2023-05-02T00:22:28.600Z,14.09
2023-05-02T00:26:44.922Z,14.37
2023-05-02T00:31:01.308Z,14.51
2023-05-02T00:35:17.701Z,14.56
2023-05-02T00:39:36.143Z,14.59
2023-05-02T00:43:52.513Z,14.70
2023-05-02T00:48:10.013Z,14.93
2023-05-02T00:52:26.782Z,14.78
2023-05-02T00:56:43.132Z,14.77
2023-05-02T01:01:16.899Z,14.79
2023-05-02T01:05:47.263Z,14.64
2023-05-02T01:10:23.310Z,14.96
2023-05-02T01:14:45.124Z,14.89
2023-05-02T01:19:02.215Z,15.02
2023-05-02T01:23:44.990Z,14.35
2023-05-02T01:28:23.694Z,14.41
2023-05-02T01:32:42.109Z,14.58
2023-05-02T01:36:59.647Z,14.42
2023-05-02T01:41:16.357Z,14.58
2023-05-02T01:45:34.193Z,14.51
2023-05-02T01:49:50.619Z,14.42
2023-05-02T01:54:09.184Z,14.22
2023-05-02T01:58:27.522Z,14.08
2023-05-02T02:02:44.884Z,14.00
2023-05-02T02:07:07.974Z,14.08
2023-05-02T02:11:36.005Z,14.00
2023-05-02T02:15:54.068Z,13.97
2023-05-02T02:20:12.800Z,14.02
2023-05-02T02:24:29.331Z,14.31
2023-05-02T02:28:46.241Z,14.34
2023-05-02T02:33:02.460Z,14.47
2023-05-02T02:37:30.444Z,14.62
2023-05-02T02:42:08.493Z,14.74
2023-05-02T02:46:34.695Z,14.82
2023-05-02T02:51:16.235Z,14.88
2023-05-02T02:55:48.018Z,14.81
2023-05-02T03:00:22.245Z,14.86
2023-05-02T03:04:46.189Z,14.72
2023-05-02T03:09:02.619Z,14.72
2023-05-02T03:13:18.839Z,14.77
2023-05-02T03:17:35.121Z,14.34
2023-05-02T03:21:51.389Z,14.31
2023-05-02T03:26:07.750Z,14.19
2023-05-02T03:30:24.079Z,14.34
2023-05-02T03:34:42.002Z,14.43
2023-05-02T03:38:58.368Z,14.11
2023-05-02T03:43:14.784Z,14.15
2023-05-02T03:47:31.009Z,14.38
2023-05-02T03:51:47.347Z,14.49
2023-05-02T03:56:03.596Z,14.71
2023-05-02T04:00:19.968Z,14.76
2023-05-02T04:04:36.596Z,14.78
2023-05-02T04:08:52.909Z,14.86
2023-05-02T04:13:09.224Z,14.84
2023-05-02T04:17:25.545Z,14.77
2023-05-02T04:21:41.924Z,14.74
2023-05-02T04:25:58.263Z,14.91
2023-05-02T04:30:14.760Z,15.07
2023-05-02T04:34:31.031Z,14.86
2023-05-02T04:38:47.305Z,15.24
2023-05-02T04:43:03.574Z,15.23
2023-05-02T04:47:19.810Z,15.22
2023-05-02T04:51:36.109Z,15.29
2023-05-02T04:55:52.451Z,15.26
2023-05-02T05:00:09.330Z,15.53
2023-05-02T05:04:25.944Z,15.64
2023-05-02T05:08:42.461Z,15.40
2023-05-02T05:12:58.672Z,15.73
2023-05-02T05:17:15.058Z,15.83
2023-05-02T05:21:31.321Z,16.15
2023-05-02T05:25:47.746Z,16.31
2023-05-02T05:30:04.749Z,16.49
2023-05-02T05:34:21.324Z,16.27
2023-05-02T05:38:37.954Z,16.82
2023-05-02T05:42:54.233Z,16.53
2023-05-02T05:47:10.664Z,17.02
2023-05-02T05:51:28.105Z,16.78
2023-05-02T05:55:44.449Z,17.37
2023-05-02T06:00:01.032Z,17.45
2023-05-02T06:04:17.696Z,17.52
2023-05-02T06:08:33.941Z,17.64
2023-05-02T06:12:50.292Z,17.95
2023-05-02T06:17:06.868Z,18.30
2023-05-02T06:21:23.156Z,18.45
2023-05-02T06:25:39.710Z,18.68
2023-05-02T06:29:56.017Z,18.65
2023-05-02T06:34:12.280Z,18.65
2023-05-02T06:38:28.633Z,19.08
2023-05-02T06:42:44.950Z,19.25
2023-05-02T06:47:01.408Z,19.28
2023-05-02T06:51:19.640Z,19.48
2023-05-02T06:55:35.856Z,19.71
2023-05-02T06:59:52.218Z,19.95
2023-05-02T07:04:08.433Z,20.07
2023-05-02T07:08:24.774Z,20.36
2023-05-02T07:12:41.331Z,20.45
2023-05-02T07:16:57.814Z,20.44
2023-05-02T07:21:14.601Z,20.80
2023-05-02T07:25:30.901Z,20.01
2023-05-02T07:29:47.101Z,20.69
2023-05-02T07:34:03.326Z,20.75
2023-05-02T07:38:19.602Z,20.92
2023-05-02T07:42:36.502Z,20.99
2023-05-02T07:46:53.692Z,19.97
2023-05-02T07:51:13.739Z,20.27
2023-05-02T07:55:31.550Z,20.82
2023-05-02T07:59:48.223Z,20.58
2023-05-02T08:04:07.600Z,20.18
2023-05-02T08:08:24.220Z,20.77
2023-05-02T08:12:41.678Z,20.72
2023-05-02T08:16:58.349Z,20.93
2023-05-02T08:21:14.581Z,21.03
2023-05-02T08:25:30.829Z,20.86
2023-05-02T08:29:46.988Z,21.42
2023-05-02T08:34:03.186Z,21.48
2023-05-02T08:38:19.322Z,21.53
2023-05-02T08:42:36.013Z,21.69
2023-05-02T08:46:52.723Z,22.16
2023-05-02T08:51:16.299Z,22.50
2023-05-02T08:55:33.223Z,22.78
2023-05-02T08:59:50.160Z,23.11
2023-05-02T09:04:06.619Z,23.04
2023-05-02T09:08:24.572Z,23.06
2023-05-02T09:12:41.096Z,23.33
2023-05-02T09:17:03.934Z,23.09
2023-05-02T09:21:25.586Z,22.96
2023-05-02T09:25:41.984Z,22.86
2023-05-02T09:30:30.571Z,22.91
2023-05-02T09:35:06.339Z,22.95
2023-05-02T09:39:29.382Z,23.00
2023-05-02T09:43:55.122Z,22.93
2023-05-02T09:48:12.359Z,23.00
2023-05-02T09:52:28.610Z,22.76
2023-05-02T09:56:56.918Z,22.88
2023-05-02T10:01:20.137Z,22.87
2023-05-02T10:05:40.701Z,23.27
2023-05-02T10:09:58.805Z,23.29
2023-05-02T10:14:16.701Z,22.66
2023-05-02T10:18:45.292Z,23.17
2023-05-02T10:23:04.769Z,22.77
2023-05-02T10:27:21.631Z,22.63
2023-05-02T10:31:39.969Z,22.66
2023-05-02T10:35:56.301Z,23.07
2023-05-02T10:40:13.853Z,22.90
2023-05-02T10:44:37.888Z,23.28
2023-05-02T10:49:04.537Z,23.71
2023-05-02T10:53:33.906Z,23.66
2023-05-02T10:58:01.716Z,23.93
2023-05-02T11:02:24.300Z,23.77
2023-05-02T11:07:01.466Z,23.88
2023-05-02T11:11:43.829Z,24.08
2023-05-02T11:16:00.358Z,24.21
2023-05-02T11:20:19.786Z,24.16
2023-05-02T11:24:43.080Z,24.53
2023-05-02T11:28:59.326Z,25.38
2023-05-02T11:33:17.769Z,25.54
2023-05-02T11:37:34.341Z,25.88
2023-05-02T11:41:51.301Z,26.22
2023-05-02T11:46:07.900Z,25.97
2023-05-02T11:50:25.844Z,25.08
2023-05-02T11:54:42.152Z,25.71
2023-05-02T11:59:04.549Z,25.47
2023-05-02T12:03:33.323Z,25.94
2023-05-02T12:07:49.677Z,26.68
2023-05-02T12:12:06.103Z,26.73
2023-05-02T12:16:22.506Z,26.78
2023-05-02T12:20:39.558Z,26.84
2023-05-02T12:24:56.228Z,26.89
2023-05-02T12:29:12.903Z,26.49
2023-05-02T12:33:29.152Z,25.42
2023-05-02T12:37:47.324Z,25.20
2023-05-02T12:42:17.977Z,25.60
2023-05-02T12:46:34.371Z,25.62
2023-05-02T12:50:51.446Z,25.92
2023-05-02T12:55:37.152Z,25.75
2023-05-02T12:59:57.082Z,25.76
2023-05-02T13:04:13.566Z,25.69
2023-05-02T13:08:30.075Z,25.83
2023-05-02T13:12:47.043Z,25.62
2023-05-02T13:17:04.300Z,25.54
2023-05-02T13:21:20.658Z,25.47
2023-05-02T13:25:36.971Z,25.29
2023-05-02T13:29:53.236Z,24.61
2023-05-02T13:34:09.470Z,24.65
2023-05-02T13:38:26.260Z,24.97
2023-05-02T13:42:42.629Z,25.17
2023-05-02T13:46:58.860Z,25.21
2023-05-02T13:51:15.024Z,25.25
2023-05-02T13:55:31.396Z,24.70
2023-05-02T13:59:47.595Z,25.08
2023-05-02T14:04:09.115Z,24.92
2023-05-02T14:08:25.860Z,24.70
2023-05-02T14:12:42.271Z,24.78
2023-05-02T14:17:00.573Z,24.50
2023-05-02T14:21:17.504Z,24.97
2023-05-02T14:25:33.870Z,24.90
2023-05-02T14:29:50.182Z,24.47
2023-05-02T14:34:08.797Z,24.77
2023-05-02T14:38:25.310Z,24.67
2023-05-02T14:42:42.393Z,24.59
2023-05-02T14:46:58.943Z,24.19
2023-05-02T14:51:15.678Z,24.12
2023-05-02T14:55:36.397Z,24.12
2023-05-02T14:59:53.036Z,24.04
2023-05-02T15:04:09.748Z,23.86
2023-05-02T15:08:27.693Z,23.33
2023-05-02T15:12:44.055Z,22.97
2023-05-02T15:17:00.580Z,22.72
2023-05-02T15:21:17.151Z,22.23
2023-05-02T15:25:33.934Z,22.41
2023-05-02T15:29:50.243Z,22.67
2023-05-02T15:34:06.588Z,22.72
2023-05-02T15:38:22.876Z,22.69
2023-05-02T15:42:39.131Z,22.74
2023-05-02T15:46:56.192Z,22.68
2023-05-02T15:51:13.820Z,22.73
2023-05-02T15:55:31.254Z,22.51
2023-05-02T15:59:47.448Z,22.41
2023-05-02T16:04:06.450Z,22.33
2023-05-02T16:08:22.710Z,22.29
2023-05-02T16:12:38.970Z,22.30
2023-05-02T16:16:56.500Z,22.10
2023-05-02T16:21:12.896Z,22.00
2023-05-02T16:25:29.296Z,21.80
2023-05-02T16:29:45.588Z,21.39
2023-05-02T16:34:03.215Z,21.42
2023-05-02T16:38:19.470Z,21.43
2023-05-02T16:42:35.913Z,21.29
2023-05-02T16:46:52.714Z,21.48
2023-05-02T16:51:09.156Z,21.38
2023-05-02T16:55:25.446Z,21.41
2023-05-02T16:59:41.952Z,21.40
2023-05-02T17:03:58.294Z,21.39
2023-05-02T17:08:15.086Z,21.27
2023-05-02T17:12:31.945Z,21.01
2023-05-02T17:16:48.273Z,20.69
2023-05-02T17:21:04.719Z,20.47
2023-05-02T17:25:21.087Z,20.29
2023-05-02T17:29:37.708Z,20.39
2023-05-02T17:33:54.043Z,20.42
2023-05-02T17:38:10.238Z,20.34
2023-05-02T17:42:26.527Z,20.26
2023-05-02T17:46:43.365Z,20.24
2023-05-02T17:51:02.544Z,19.96
2023-05-02T17:55:19.192Z,19.84
2023-05-02T17:59:39.201Z,19.88
2023-05-02T18:03:55.481Z,19.95
2023-05-02T18:08:11.945Z,19.39
2023-05-02T18:12:28.528Z,19.30
2023-05-02T18:16:48.767Z,19.61
2023-05-02T18:21:06.376Z,18.68
2023-05-02T18:25:22.577Z,18.68
2023-05-02T18:29:38.747Z,18.60
2023-05-02T18:33:55.108Z,18.76
2023-05-02T18:38:11.763Z,18.77
2023-05-02T18:42:28.400Z,18.61
2023-05-02T18:46:44.655Z,18.51
2023-05-02T18:51:01.551Z,18.54
2023-05-02T18:55:18.587Z,18.62
2023-05-02T18:59:34.832Z,18.73
2023-05-02T19:03:52.949Z,18.58
2023-05-02T19:08:09.809Z,17.44
2023-05-02T19:12:26.104Z,16.94
2023-05-02T19:16:42.329Z,17.80
2023-05-02T19:20:58.820Z,17.18
2023-05-02T19:25:16.015Z,17.33
2023-05-02T19:29:32.166Z,17.03
2023-05-02T19:33:52.205Z,17.43
2023-05-02T19:38:08.519Z,17.37
2023-05-02T19:42:24.677Z,17.13
2023-05-02T19:46:41.068Z,16.77
2023-05-02T19:50:57.364Z,16.89
2023-05-02T19:55:13.819Z,17.21
2023-05-02T19:59:30.460Z,17.20
2023-05-02T20:03:48.359Z,16.78
2023-05-02T20:08:04.704Z,16.86
2023-05-02T20:12:21.823Z,16.92
2023-05-02T20:16:38.351Z,17.00
2023-05-02T20:20:55.048Z,16.49
2023-05-02T20:25:12.120Z,15.83
2023-05-02T20:29:28.363Z,16.26
2023-05-02T20:33:46.029Z,16.42
2023-05-02T20:38:02.500Z,16.61
2023-05-02T20:42:23.484Z,16.63
2023-05-02T20:46:39.794Z,16.62
2023-05-02T20:50:56.204Z,16.50
2023-05-02T20:55:12.680Z,16.10
2023-05-02T20:59:28.943Z,16.23
2023-05-02T21:03:45.407Z,16.51
2023-05-02T21:08:01.813Z,16.71
2023-05-02T21:12:18.333Z,16.52
2023-05-02T21:16:34.772Z,16.14
2023-05-02T21:20:51.153Z,16.02
2023-05-02T21:25:07.652Z,16.33
2023-05-02T21:29:23.822Z,16.47
2023-05-02T21:33:41.626Z,16.11
2023-05-02T21:37:57.929Z,15.95
2023-05-02T21:42:14.156Z,15.77
2023-05-02T21:46:30.394Z,15.96
2023-05-02T21:50:46.792Z,16.30
2023-05-02T21:55:03.175Z,15.90
2023-05-02T21:59:19.632Z,16.09
2023-05-02T22:03:36.866Z,15.85
2023-05-02T22:07:53.280Z,15.81
2023-05-02T22:12:09.626Z,15.52
2023-05-02T22:16:26.622Z,15.31
2023-05-02T22:20:43.709Z,15.35
2023-05-02T22:25:00.527Z,15.42
2023-05-02T22:29:16.913Z,15.41
2023-05-02T22:33:33.258Z,15.37
2023-05-02T22:37:50.168Z,15.69
2023-05-02T22:42:06.556Z,15.73
2023-05-02T22:46:22.896Z,15.23
2023-05-02T22:50:39.145Z,15.50
2023-05-02T22:54:55.607Z,15.54
2023-05-02T22:59:11.958Z,15.57
2023-05-02T23:03:28.319Z,15.48
2023-05-02T23:07:44.995Z,15.60
2023-05-02T23:12:06.024Z,15.63
2023-05-02T23:16:22.369Z,15.75
2023-05-02T23:20:38.694Z,15.74
2023-05-02T23:24:55.024Z,15.71
2023-05-02T23:29:12.616Z,15.89
2023-05-02T23:33:29.850Z,15.92
2023-05-02T23:37:46.208Z,15.90
2023-05-02T23:42:03.956Z,16.11
2023-05-02T23:46:20.288Z,16.25
2023-05-02T23:50:36.754Z,16.20
2023-05-02T23:54:53.070Z,16.18
2023-05-02T23:59:09.524Z,16.30
